Time;durP1;ratioP1;P1;durP2;ratioP2;P2;SDS_P1;SDS_P2;PMS_P1;PMS_P2;Temp;Humidity;BMP_temperature;BMP_pressure;BME280_temperature;BME280_humidity;BME280_pressure;Samples;Min_cycle;Max_cycle;Signal;HPM_P1;HPM_P2
2022/03/13 00:02:17;;;;;;;15.30;8.00;;;12.20;60.60;;;;;;5033308;28;20033;-77
2022/03/13 00:04:49;;;;;;;12.73;7.57;;;12.10;60.70;;;;;;5050746;28;20041;-76
2022/03/13 00:07:25;;;;;;;13.57;8.15;;;12.20;60.80;;;;;;5051859;28;20029;-76
2022/03/13 00:09:51;;;;;;;14.38;7.60;;;12.10;60.70;;;;;;5021199;28;20086;-76
2022/03/13 00:12:29;;;;;;;14.00;7.50;;;12.10;60.70;;;;;;5053149;28;20021;-77
2022/03/13 00:14:56;;;;;;;13.80;7.83;;;12.10;60.80;;;;;;5052949;28;20036;-76
2022/03/13 00:17:27;;;;;;;15.15;7.68;;;12.10;60.90;;;;;;5052253;28;20037;-76
2022/03/13 00:19:55;;;;;;;12.15;7.68;;;12.10;60.80;;;;;;5051745;28;20128;-77
2022/03/13 00:22:20;;;;;;;13.15;7.35;;;12.10;60.80;;;;;;5052966;28;20060;-76
2022/03/13 00:24:46;;;;;;;11.40;6.95;;;12.10;60.80;;;;;;5051902;28;20056;-76
2022/03/13 00:27:12;;;;;;;14.20;7.07;;;12.20;60.90;;;;;;5035228;28;20492;-76
2022/03/13 00:29:39;;;;;;;12.95;7.53;;;12.10;60.70;;;;;;5051744;28;20397;-76
2022/03/13 00:32:06;;;;;;;11.52;6.97;;;12.10;60.70;;;;;;5051781;28;20104;-77
2022/03/13 00:34:31;;;;;;;11.73;6.88;;;12.20;60.80;;;;;;5052896;28;20032;-76
2022/03/13 00:36:57;;;;;;;15.10;7.43;;;12.10;60.70;;;;;;5035236;28;20066;-77
2022/03/13 00:39:22;;;;;;;11.18;6.90;;;12.10;60.90;;;;;;5051951;28;20057;-77
2022/03/13 00:41:48;;;;;;;12.50;7.10;;;12.10;61.10;;;;;;5052963;28;20025;-77
2022/03/13 00:44:14;;;;;;;13.00;7.55;;;12.10;61.10;;;;;;5051723;28;20470;-78
2022/03/13 00:46:39;;;;;;;13.15;7.72;;;12.10;61.30;;;;;;5035392;28;20029;-77
2022/03/13 00:49:06;;;;;;;11.85;7.38;;;12.10;61.40;;;;;;5051647;28;20033;-77
2022/03/13 00:51:31;;;;;;;12.35;6.80;;;12.10;61.60;;;;;;5051530;28;20112;-77
2022/03/13 00:53:57;;;;;;;12.85;7.03;;;12.10;61.80;;;;;;5051434;28;20053;-76
2022/03/13 00:56:24;;;;;;;12.83;6.90;;;12.00;61.90;;;;;;5051493;28;20049;-76
2022/03/13 00:58:49;;;;;;;11.57;6.78;;;12.00;62.20;;;;;;5055281;28;20087;-76
2022/03/13 01:01:17;;;;;;;11.77;6.80;;;12.00;62.20;;;;;;5038660;28;20055;-76
2022/03/13 01:03:42;;;;;;;13.70;6.47;;;12.00;62.30;;;;;;5056372;28;20029;-76
2022/03/13 01:06:09;;;;;;;11.02;6.45;;;12.00;62.40;;;;;;5056580;28;20036;-76
2022/03/13 01:08:36;;;;;;;11.47;6.33;;;12.00;62.50;;;;;;5055245;28;20067;-77
2022/03/13 01:11:03;;;;;;;13.50;7.32;;;11.90;62.60;;;;;;5054972;28;20013;-76
2022/03/13 01:13:30;;;;;;;14.48;7.35;;;11.90;62.40;;;;;;5054897;28;20044;-76
2022/03/13 01:16:11;;;;;;;14.70;7.00;;;11.90;62.40;;;;;;5056126;28;20068;-76
2022/03/13 01:18:44;;;;;;;9.90;6.18;;;11.90;62.50;;;;;;5055860;28;20048;-76
2022/03/13 01:21:11;;;;;;;11.35;6.45;;;12.00;62.60;;;;;;5056180;28;20477;-76
2022/03/13 01:23:39;;;;;;;11.50;6.60;;;12.00;62.60;;;;;;5055928;28;20033;-77
2022/03/13 01:26:22;;;;;;;11.52;6.35;;;12.00;62.50;;;;;;5055985;28;20033;-76
2022/03/13 01:28:59;;;;;;;11.80;7.15;;;12.00;62.50;;;;;;5054577;28;20032;-76
2022/03/13 01:31:36;;;;;;;11.80;6.82;;;12.00;63.00;;;;;;5054540;28;20029;-76
2022/03/13 01:34:04;;;;;;;10.23;6.00;;;12.00;62.30;;;;;;5054517;28;20025;-76
2022/03/13 01:36:29;;;;;;;11.90;6.35;;;12.00;62.40;;;;;;5054502;28;20021;-76
2022/03/13 01:38:57;;;;;;;11.15;6.60;;;12.00;62.40;;;;;;5054369;28;20032;-76
2022/03/13 01:41:25;;;;;;;13.43;7.00;;;12.00;62.50;;;;;;5054772;28;20465;-76
2022/03/13 01:43:51;;;;;;;12.88;7.63;;;11.90;62.40;;;;;;5055595;28;20040;-76
2022/03/13 01:46:17;;;;;;;11.52;7.25;;;11.90;62.50;;;;;;5037667;28;20029;-77
2022/03/13 01:48:55;;;;;;;12.88;7.50;;;11.90;62.60;;;;;;5055377;28;20417;-76
2022/03/13 01:51:22;;;;;;;12.82;8.10;;;12.00;62.60;;;;;;5054128;28;20052;-76
2022/03/13 01:53:52;;;;;;;14.38;8.95;;;11.90;62.50;;;;;;5054871;28;20032;-76
2022/03/13 01:56:18;;;;;;;14.80;8.73;;;11.90;62.40;;;;;;5055103;28;20124;-76
2022/03/13 01:58:48;;;;;;;15.55;10.25;;;11.90;62.50;;;;;;5052529;28;20056;-77
2022/03/13 02:01:13;;;;;;;14.15;9.35;;;11.90;62.60;;;;;;5055097;28;20021;-76
2022/03/13 02:03:39;;;;;;;16.10;9.85;;;11.80;62.60;;;;;;5055050;28;20037;-76
2022/03/13 02:06:04;;;;;;;18.15;9.93;;;11.80;62.80;;;;;;5053648;28;20096;-76
2022/03/13 02:08:35;;;;;;;21.35;10.90;;;11.80;62.40;;;;;;5036449;28;20032;-76
2022/03/13 02:11:02;;;;;;;18.33;10.98;;;11.70;62.40;;;;;;5055132;28;20469;-76
2022/03/13 02:13:28;;;;;;;14.98;9.65;;;11.70;62.40;;;;;;5052459;28;20024;-76
2022/03/13 02:15:55;;;;;;;17.43;10.90;;;11.70;62.40;;;;;;5037434;28;20029;-76
2022/03/13 02:18:21;;;;;;;18.67;11.63;;;11.60;62.50;;;;;;5054539;28;20021;-76
2022/03/13 02:20:46;;;;;;;17.75;10.38;;;11.60;62.60;;;;;;5053448;28;20033;-76
2022/03/13 02:23:19;;;;;;;17.35;11.07;;;11.50;62.70;;;;;;5054889;28;20025;-76
2022/03/13 02:25:49;;;;;;;21.58;12.50;;;11.50;62.80;;;;;;5054825;28;20032;-76
2022/03/13 02:28:18;;;;;;;23.45;11.85;;;11.40;62.80;;;;;;5053387;28;20029;-76
2022/03/13 02:30:43;;;;;;;17.27;11.70;;;11.40;62.80;;;;;;5053454;28;20489;-76
2022/03/13 02:33:09;;;;;;;18.93;11.70;;;11.30;62.90;;;;;;5053345;28;20112;-76
2022/03/13 02:35:35;;;;;;;22.10;13.07;;;11.30;63.00;;;;;;5053780;28;20108;-76
2022/03/13 02:38:01;;;;;;;18.90;11.90;;;11.20;63.10;;;;;;5053512;28;20060;-76
2022/03/13 02:40:27;;;;;;;20.20;12.90;;;11.20;63.30;;;;;;5053339;28;20040;-76
2022/03/13 02:42:55;;;;;;;18.37;12.23;;;11.20;63.30;;;;;;5053392;28;20433;-76
2022/03/13 02:45:31;;;;;;;20.73;13.70;;;11.20;63.40;;;;;;5053222;28;20029;-76
2022/03/13 02:48:00;;;;;;;20.40;13.43;;;11.10;63.40;;;;;;5053132;28;20021;-76
2022/03/13 02:50:26;;;;;;;20.23;13.63;;;11.10;63.60;;;;;;5053181;28;20036;-76
2022/03/13 02:52:51;;;;;;;21.43;13.83;;;11.10;63.80;;;;;;5035954;28;20021;-76
2022/03/13 02:55:17;;;;;;;23.60;14.70;;;11.00;64.40;;;;;;5036317;28;20049;-76
2022/03/13 02:57:43;;;;;;;24.13;15.17;;;10.90;64.20;;;;;;5020320;28;20025;-76
2022/03/13 03:00:10;;;;;;;23.00;15.27;;;10.90;64.20;;;;;;5053176;28;20036;-76
2022/03/13 03:02:36;;;;;;;23.93;15.30;;;10.90;64.60;;;;;;5052846;28;20025;-76
2022/03/13 03:05:06;;;;;;;21.77;14.57;;;10.80;64.40;;;;;;5036164;28;20061;-76
2022/03/13 03:07:33;;;;;;;22.03;14.50;;;10.80;64.50;;;;;;5054108;28;20067;-76
2022/03/13 03:09:58;;;;;;;20.13;13.40;;;10.70;64.60;;;;;;5052776;28;20021;-76
2022/03/13 03:12:24;;;;;;;21.77;14.00;;;10.70;64.70;;;;;;5051967;28;20029;-76
2022/03/13 03:14:50;;;;;;;25.17;15.23;;;10.60;64.90;;;;;;5035998;28;20029;-76
2022/03/13 03:17:16;;;;;;;21.27;14.20;;;10.60;65.00;;;;;;5052515;28;20036;-76
2022/03/13 03:19:42;;;;;;;25.97;15.33;;;10.60;64.90;;;;;;5031999;28;20033;-76
2022/03/13 03:22:08;;;;;;;26.60;15.07;;;10.50;65.00;;;;;;5053315;28;20039;-76
2022/03/13 03:24:34;;;;;;;25.13;15.00;;;10.50;65.00;;;;;;5052533;28;20385;-76
2022/03/13 03:27:00;;;;;;;20.87;13.57;;;10.40;64.80;;;;;;5052508;28;20059;-76
2022/03/13 03:29:27;;;;;;;20.57;12.63;;;10.50;65.20;;;;;;5053624;28;20053;-76
2022/03/13 03:31:54;;;;;;;20.97;13.77;;;10.40;65.00;;;;;;5052199;28;20501;-76
2022/03/13 03:34:22;;;;;;;26.77;14.40;;;10.30;65.70;;;;;;5052276;28;20025;-76
2022/03/13 03:36:51;;;;;;;22.40;13.90;;;10.30;65.20;;;;;;5053531;28;20021;-76
2022/03/13 03:39:18;;;;;;;22.77;13.03;;;10.30;65.20;;;;;;5052494;28;20113;-76
2022/03/13 03:41:46;;;;;;;22.87;14.87;;;10.20;65.20;;;;;;5053417;28;20111;-76
2022/03/13 03:44:13;;;;;;;20.53;13.60;;;10.20;65.50;;;;;;5053400;28;20052;-76
2022/03/13 03:46:40;;;;;;;23.27;15.20;;;10.20;65.40;;;;;;5052055;28;20099;-76
2022/03/13 03:49:06;;;;;;;24.57;14.57;;;10.20;65.40;;;;;;5051928;28;20209;-76
2022/03/13 03:51:32;;;;;;;20.93;14.07;;;10.20;65.60;;;;;;5053639;28;20385;-76
2022/03/13 03:53:58;;;;;;;27.80;14.97;;;10.20;65.60;;;;;;5053245;28;20033;-77
2022/03/13 03:56:23;;;;;;;22.33;14.37;;;10.10;65.50;;;;;;5051826;28;20128;-76
2022/03/13 03:58:49;;;;;;;20.70;14.03;;;10.10;65.40;;;;;;5052208;28;20033;-76
2022/03/13 04:01:16;;;;;;;21.13;13.83;;;10.20;65.60;;;;;;5035367;28;20059;-76
2022/03/13 04:03:41;;;;;;;20.97;12.90;;;10.10;65.40;;;;;;5051950;28;20017;-76
2022/03/13 04:06:07;;;;;;;20.43;14.27;;;10.30;65.50;;;;;;5052028;28;20115;-76
2022/03/13 04:08:33;;;;;;;22.53;14.50;;;10.20;65.60;;;;;;5051812;28;20021;-76
2022/03/13 04:11:00;;;;;;;23.27;12.97;;;10.20;65.40;;;;;;5035478;28;20025;-76
2022/03/13 04:13:26;;;;;;;21.30;13.63;;;10.20;65.30;;;;;;5031151;28;20021;-76
2022/03/13 04:15:52;;;;;;;20.53;12.90;;;10.20;65.40;;;;;;5031814;28;20029;-76
2022/03/13 04:18:19;;;;;;;19.57;12.60;;;10.20;65.30;;;;;;5031785;28;20026;-77
2022/03/13 04:20:44;;;;;;;21.37;13.83;;;10.20;65.20;;;;;;5033117;28;20386;-76
2022/03/13 04:23:10;;;;;;;21.80;14.33;;;10.30;65.20;;;;;;5015555;28;20032;-76
2022/03/13 04:25:37;;;;;;;23.87;14.53;;;10.10;65.00;;;;;;5031904;28;20033;-76
2022/03/13 04:28:04;;;;;;;22.77;13.33;;;10.20;65.00;;;;;;5032013;28;20535;-76
2022/03/13 04:30:30;;;;;;;20.83;13.20;;;10.20;64.90;;;;;;5031679;28;20030;-76
2022/03/13 04:32:57;;;;;;;19.23;12.60;;;10.20;64.80;;;;;;5034698;28;20036;-76
2022/03/13 04:35:23;;;;;;;20.10;12.67;;;10.20;64.70;;;;;;5035680;28;20026;-76
2022/03/13 04:37:50;;;;;;;19.20;12.70;;;10.20;64.60;;;;;;5036997;28;20478;-76
2022/03/13 04:40:15;;;;;;;20.07;13.70;;;10.20;64.70;;;;;;5036911;28;20026;-76
2022/03/13 04:42:41;;;;;;;20.97;12.97;;;10.20;64.50;;;;;;5019170;28;20025;-76
2022/03/13 04:45:07;;;;;;;21.57;12.37;;;10.20;64.50;;;;;;5035548;28;20120;-76
2022/03/13 04:47:34;;;;;;;22.50;14.63;;;10.20;64.50;;;;;;5002755;28;20110;-76
2022/03/13 04:50:00;;;;;;;23.07;13.50;;;10.20;64.50;;;;;;5050255;28;20021;-77
2022/03/13 04:52:27;;;;;;;21.73;12.67;;;10.20;64.60;;;;;;5055207;28;20132;-76
2022/03/13 04:54:53;;;;;;;21.17;13.10;;;10.20;64.40;;;;;;5021965;28;20106;-76
2022/03/13 04:57:20;;;;;;;20.47;13.23;;;10.10;64.30;;;;;;5055256;28;20472;-76
2022/03/13 04:59:45;;;;;;;20.40;12.83;;;10.10;64.30;;;;;;5055172;28;20028;-76
2022/03/13 05:02:11;;;;;;;20.33;12.07;;;10.20;64.20;;;;;;5055533;28;20078;-76
2022/03/13 05:04:38;;;;;;;18.63;12.07;;;10.30;64.10;;;;;;5055257;28;20120;-76
2022/03/13 05:07:06;;;;;;;23.27;12.17;;;10.10;63.90;;;;;;5018783;28;20037;-77
2022/03/13 05:09:32;;;;;;;20.47;12.53;;;10.10;63.90;;;;;;5036016;28;20040;-76
2022/03/13 05:12:00;;;;;;;22.63;12.50;;;10.10;63.70;;;;;;5049011;28;20115;-76
2022/03/13 05:14:26;;;;;;;17.83;11.77;;;10.10;63.60;;;;;;5054818;28;20112;-76
2022/03/13 05:16:52;;;;;;;17.03;11.90;;;10.00;63.50;;;;;;5054547;28;20064;-76
2022/03/13 05:19:18;;;;;;;17.80;11.77;;;10.10;63.50;;;;;;5021787;28;20037;-76
2022/03/13 05:21:44;;;;;;;19.80;12.53;;;10.10;63.40;;;;;;5056207;28;20025;-76
2022/03/13 05:24:10;;;;;;;19.83;12.10;;;10.10;63.30;;;;;;5038288;28;20033;-76
2022/03/13 05:26:36;;;;;;;17.17;11.03;;;10.10;63.20;;;;;;5055974;28;20056;-76
2022/03/13 05:29:02;;;;;;;18.10;11.23;;;10.10;63.20;;;;;;5054570;28;20510;-76
2022/03/13 05:31:28;;;;;;;17.53;10.60;;;10.10;63.10;;;;;;5054557;28;20124;-76
2022/03/13 05:33:53;;;;;;;16.17;10.57;;;10.10;63.00;;;;;;5037939;28;20021;-76
2022/03/13 05:36:19;;;;;;;21.07;11.30;;;10.10;62.80;;;;;;5054490;28;20024;-76
2022/03/13 05:38:45;;;;;;;17.13;10.90;;;10.00;62.70;;;;;;5054658;28;20499;-76
2022/03/13 05:41:11;;;;;;;19.13;10.63;;;10.10;62.60;;;;;;5054736;28;20035;-77
2022/03/13 05:43:38;;;;;;;17.93;10.83;;;10.10;62.30;;;;;;5053397;28;20048;-76
2022/03/13 05:46:04;;;;;;;16.67;10.53;;;10.10;62.10;;;;;;5038358;28;20083;-76
2022/03/13 05:48:30;;;;;;;17.80;10.83;;;10.00;61.80;;;;;;5054319;28;20029;-76
2022/03/13 05:50:56;;;;;;;18.33;11.33;;;10.20;61.70;;;;;;5054255;28;20112;-76
2022/03/13 05:53:22;;;;;;;16.83;10.10;;;10.10;61.50;;;;;;5054111;28;20017;-76
2022/03/13 05:55:47;;;;;;;17.20;10.97;;;10.10;61.20;;;;;;5053951;28;20072;-76
2022/03/13 05:58:14;;;;;;;17.07;9.87;;;10.10;61.00;;;;;;5051492;28;20078;-77
2022/03/13 06:00:40;;;;;;;16.37;9.80;;;10.10;60.70;;;;;;5040421;28;20025;-76
2022/03/13 06:03:06;;;;;;;17.50;10.83;;;10.20;60.50;;;;;;5036587;28;20110;-76
2022/03/13 06:05:37;;;;;;;17.67;10.17;;;10.20;60.30;;;;;;5043263;28;20024;-76
2022/03/13 06:08:04;;;;;;;16.73;10.33;;;10.10;60.20;;;;;;5036061;28;20025;-77
2022/03/13 06:10:29;;;;;;;17.70;10.70;;;10.20;60.20;;;;;;5055083;28;20032;-76
2022/03/13 06:12:55;;;;;;;16.93;10.17;;;10.10;60.10;;;;;;5037191;28;20101;-77
2022/03/13 06:15:22;;;;;;;21.90;10.43;;;10.10;60.20;;;;;;5037257;28;20409;-76
2022/03/13 06:17:48;;;;;;;16.27;9.90;;;10.10;60.40;;;;;;5054948;28;20029;-76
2022/03/13 06:20:16;;;;;;;16.77;9.90;;;10.00;60.40;;;;;;5055035;28;20032;-76
2022/03/13 06:22:44;;;;;;;17.97;9.47;;;10.10;60.40;;;;;;5054906;28;20017;-76
2022/03/13 06:25:11;;;;;;;16.17;9.37;;;10.10;60.30;;;;;;5054325;28;20074;-76
2022/03/13 06:27:38;;;;;;;16.17;9.53;;;10.00;60.70;;;;;;5054561;28;20035;-76
2022/03/13 06:30:13;;;;;;;15.47;9.60;;;10.10;60.00;;;;;;5054414;28;20028;-76
2022/03/13 06:32:43;;;;;;;;;;;10.10;60.00;;;;;;5053711;28;20489;-76
2022/03/13 06:35:10;;;;;;;16.13;9.33;;;10.00;59.70;;;;;;5053487;28;19905;-76
2022/03/13 06:37:38;;;;;;;15.47;9.30;;;10.10;59.80;;;;;;5053482;28;20056;-76
2022/03/13 06:40:04;;;;;;;18.80;9.60;;;10.10;59.60;;;;;;5037171;28;20059;-76
2022/03/13 06:42:29;;;;;;;16.80;9.07;;;10.10;59.50;;;;;;5054380;28;20037;-76
2022/03/13 06:44:55;;;;;;;15.53;8.60;;;10.00;59.30;;;;;;5036648;28;20032;-76
2022/03/13 06:47:21;;;;;;;15.70;9.40;;;10.00;59.30;;;;;;5053173;28;20412;-76
2022/03/13 06:49:47;;;;;;;14.93;8.70;;;10.10;59.30;;;;;;5053530;28;20156;-76
2022/03/13 06:52:12;;;;;;;15.03;9.43;;;10.10;59.20;;;;;;5020313;28;20025;-75
2022/03/13 06:54:38;;;;;;;16.37;9.03;;;10.10;59.00;;;;;;5019625;28;20029;-76
2022/03/13 06:57:04;;;;;;;15.87;9.60;;;10.10;58.90;;;;;;5035185;28;20091;-76
2022/03/13 06:59:30;;;;;;;14.67;9.43;;;10.00;58.70;;;;;;5053050;28;20041;-76
2022/03/13 07:01:55;;;;;;;15.23;8.77;;;10.20;58.80;;;;;;5053201;28;20079;-76
2022/03/13 07:04:21;;;;;;;15.20;9.03;;;10.10;58.50;;;;;;5016279;28;20430;-76
2022/03/13 07:06:47;;;;;;;16.07;9.17;;;10.00;58.30;;;;;;4999839;28;20045;-76
2022/03/13 07:09:12;;;;;;;17.77;9.40;;;10.10;58.30;;;;;;5032917;28;20041;-76
2022/03/13 07:11:39;;;;;;;17.10;10.20;;;10.10;58.00;;;;;;5016363;28;20032;-76
2022/03/13 07:14:08;;;;;;;15.67;8.77;;;10.00;57.80;;;;;;5016648;28;20029;-76
2022/03/13 07:16:33;;;;;;;13.40;8.53;;;10.10;57.80;;;;;;5032636;28;20504;-77
2022/03/13 07:18:59;;;;;;;15.93;8.87;;;10.10;57.70;;;;;;5016087;28;20037;-76
2022/03/13 07:21:24;;;;;;;14.63;8.60;;;10.00;57.50;;;;;;5032728;28;20044;-76
2022/03/13 07:23:50;;;;;;;14.23;8.77;;;10.10;57.40;;;;;;5032489;28;20033;-77
2022/03/13 07:26:16;;;;;;;14.47;8.33;;;10.10;57.30;;;;;;5032668;28;20041;-76
2022/03/13 07:28:41;;;;;;;15.37;8.93;;;10.10;57.20;;;;;;5016024;28;20033;-77
2022/03/13 07:31:07;;;;;;;14.30;8.70;;;10.10;57.00;;;;;;5016302;28;20029;-76
2022/03/13 07:33:33;;;;;;;16.70;9.60;;;10.10;56.80;;;;;;5032516;28;20034;-76
2022/03/13 07:35:59;;;;;;;15.33;9.23;;;10.10;56.70;;;;;;5016207;28;20076;-77
2022/03/13 07:38:24;;;;;;;14.63;8.90;;;10.20;56.70;;;;;;5032596;28;20025;-77
2022/03/13 07:40:50;;;;;;;14.27;8.77;;;10.30;56.50;;;;;;5015846;28;20513;-76
2022/03/13 07:43:17;;;;;;;14.87;8.60;;;10.30;56.50;;;;;;5015806;28;20501;-77
2022/03/13 07:45:42;;;;;;;15.17;8.83;;;10.30;56.40;;;;;;5032246;28;20018;-76
2022/03/13 07:48:08;;;;;;;14.00;8.57;;;10.20;56.20;;;;;;5033690;28;20030;-77
2022/03/13 07:50:33;;;;;;;15.43;8.87;;;10.30;56.10;;;;;;5032280;28;20034;-77
2022/03/13 07:52:59;;;;;;;15.63;9.07;;;10.30;56.00;;;;;;5015854;28;20393;-77
2022/03/13 07:55:25;;;;;;;16.60;9.37;;;10.30;55.80;;;;;;5032804;28;20056;-77
2022/03/13 07:57:51;;;;;;;15.40;8.77;;;10.30;55.60;;;;;;5015588;28;20033;-77
2022/03/13 08:00:18;;;;;;;19.43;9.93;;;10.30;55.60;;;;;;5033464;28;20052;-77
2022/03/13 08:02:46;;;;;;;16.17;9.23;;;10.30;55.40;;;;;;5015876;28;20045;-77
2022/03/13 08:05:13;;;;;;;15.93;8.73;;;10.50;55.60;;;;;;5015869;28;20398;-77
2022/03/13 08:07:39;;;;;;;14.10;8.33;;;10.40;55.10;;;;;;5031385;28;20029;-78
2022/03/13 08:10:05;;;;;;;18.63;9.00;;;10.50;55.00;;;;;;5015612;28;20040;-77
2022/03/13 08:12:31;;;;;;;14.83;8.83;;;10.50;54.70;;;;;;5033661;28;20029;-76
2022/03/13 08:14:56;;;;;;;16.07;9.17;;;10.50;54.70;;;;;;5015786;28;20025;-77
2022/03/13 08:17:22;;;;;;;13.67;8.43;;;10.50;54.60;;;;;;5015482;28;20026;-78
2022/03/13 08:19:47;;;;;;;15.37;8.80;;;10.60;54.60;;;;;;5032076;28;20156;-78
2022/03/13 08:22:13;;;;;;;15.20;9.87;;;10.60;54.40;;;;;;5015449;28;20512;-76
2022/03/13 08:24:40;;;;;;;13.40;8.30;;;10.60;53.90;;;;;;4999816;28;20057;-76
2022/03/13 08:27:06;;;;;;;15.20;9.37;;;10.70;54.10;;;;;;5031843;28;20041;-76
2022/03/13 08:29:32;;;;;;;15.00;8.93;;;10.70;53.80;;;;;;5015838;28;20097;-76
2022/03/13 08:31:58;;;;;;;13.57;8.20;;;10.70;53.80;;;;;;5031749;28;20492;-77
2022/03/13 08:34:23;;;;;;;14.97;8.83;;;10.90;53.70;;;;;;5032939;28;20386;-77
2022/03/13 08:36:50;;;;;;;16.98;10.13;;;10.90;53.50;;;;;;5031804;28;20108;-77
2022/03/13 08:39:16;;;;;;;16.20;9.27;;;10.90;53.30;;;;;;5015509;28;20034;-77
2022/03/13 08:41:42;;;;;;;16.13;9.37;;;11.00;53.20;;;;;;5015249;28;20079;-77
2022/03/13 08:44:08;;;;;;;17.73;9.90;;;11.00;53.40;;;;;;4998884;28;20120;-78
2022/03/13 08:46:34;;;;;;;14.53;9.30;;;11.00;52.70;;;;;;5027241;28;20085;-76
2022/03/13 08:49:00;;;;;;;16.00;9.07;;;11.00;52.50;;;;;;5031943;28;20026;-78
2022/03/13 08:51:27;;;;;;;14.87;8.80;;;11.10;52.60;;;;;;5014992;28;20026;-77
2022/03/13 08:53:53;;;;;;;18.27;9.97;;;11.10;52.20;;;;;;5031913;28;20025;-76
2022/03/13 08:56:20;;;;;;;13.90;8.20;;;11.10;52.30;;;;;;5015172;28;20429;-77
2022/03/13 08:58:46;;;;;;;14.10;8.73;;;11.20;52.40;;;;;;5031871;28;20038;-77
2022/03/13 09:01:12;;;;;;;14.83;8.63;;;11.20;52.20;;;;;;4998908;28;20095;-78
2022/03/13 09:03:37;;;;;;;14.30;8.70;;;11.30;51.90;;;;;;5031531;28;20075;-77
2022/03/13 09:06:03;;;;;;;13.30;8.15;;;11.30;51.80;;;;;;5031363;28;20038;-77
2022/03/13 09:08:29;;;;;;;13.40;8.73;;;11.30;51.90;;;;;;5014989;28;20033;-77
2022/03/13 09:10:55;;;;;;;14.82;8.25;;;11.40;51.90;;;;;;5015023;28;20036;-76
2022/03/13 09:13:21;;;;;;;16.15;9.57;;;11.40;51.80;;;;;;5031427;28;20018;-78
2022/03/13 09:15:48;;;;;;;14.73;8.40;;;11.50;51.70;;;;;;5032664;28;20548;-77
2022/03/13 09:18:13;;;;;;;13.73;8.43;;;11.70;51.70;;;;;;5016455;28;20021;-77
2022/03/13 09:20:39;;;;;;;16.52;9.05;;;11.60;51.30;;;;;;5036041;28;20022;-77
2022/03/13 09:23:06;;;;;;;14.77;9.35;;;11.70;51.00;;;;;;5034887;28;20091;-78
2022/03/13 09:25:32;;;;;;;16.45;9.27;;;11.70;51.00;;;;;;5035035;28;20179;-76
2022/03/13 09:27:58;;;;;;;15.70;9.48;;;11.80;50.90;;;;;;5034646;28;20112;-77
2022/03/13 09:30:24;;;;;;;13.50;9.48;;;11.90;50.70;;;;;;5034430;28;20041;-76
2022/03/13 09:32:50;;;;;;;16.17;9.10;;;12.10;51.50;;;;;;5035920;28;20030;-77
2022/03/13 09:35:16;;;;;;;14.63;8.90;;;12.30;51.00;;;;;;5034549;28;20026;-77
2022/03/13 09:37:42;;;;;;;13.50;8.70;;;12.50;51.60;;;;;;5034631;28;20399;-77
2022/03/13 09:40:12;;;;;;;14.85;9.35;;;12.90;50.90;;;;;;5035426;28;20052;-77
2022/03/13 09:42:37;;;;;;;15.40;9.63;;;13.10;50.40;;;;;;5035652;28;20032;-77
2022/03/13 09:45:04;;;;;;;13.60;8.85;;;13.30;49.80;;;;;;5034798;28;20431;-78
2022/03/13 09:47:30;;;;;;;16.63;9.50;;;13.50;49.50;;;;;;5018366;28;20033;-77
2022/03/13 09:49:56;;;;;;;16.73;9.45;;;13.50;49.20;;;;;;5034460;28;20482;-77
2022/03/13 09:52:21;;;;;;;14.30;9.57;;;13.60;49.10;;;;;;5034226;28;20063;-77
2022/03/13 09:54:47;;;;;;;15.05;9.35;;;13.70;48.70;;;;;;5027173;28;20026;-77
2022/03/13 09:57:14;;;;;;;14.00;9.15;;;13.80;48.50;;;;;;5034238;28;20045;-77
2022/03/13 09:59:40;;;;;;;14.43;9.02;;;13.90;48.60;;;;;;5017634;28;20030;-77
2022/03/13 10:02:07;;;;;;;14.20;8.70;;;14.00;48.50;;;;;;5035388;28;20083;-77
2022/03/13 10:04:33;;;;;;;16.77;8.98;;;14.20;48.30;;;;;;5033947;28;20025;-77
2022/03/13 10:07:03;;;;;;;16.58;9.52;;;14.40;48.10;;;;;;5017504;28;20026;-78
2022/03/13 10:09:29;;;;;;;16.92;9.73;;;14.60;47.70;;;;;;5033808;28;20022;-77
2022/03/13 10:12:07;;;;;;;18.75;10.63;;;14.70;47.20;;;;;;5017639;28;20053;-77
2022/03/13 10:14:34;;;;;;;15.82;8.77;;;14.90;47.10;;;;;;5035222;28;20018;-78
2022/03/13 10:17:00;;;;;;;14.68;9.15;;;15.30;47.30;;;;;;5034017;28;20030;-77
2022/03/13 10:19:28;;;;;;;14.25;9.00;;;15.60;47.10;;;;;;5035170;28;20036;-77
2022/03/13 10:22:08;;;;;;;13.55;8.23;;;16.30;47.30;;;;;;5017518;28;20153;-77
2022/03/13 10:24:52;;;;;;;13.00;8.90;;;17.10;47.20;;;;;;5034971;28;20466;-77
2022/03/13 10:27:20;;;;;;;12.68;8.15;;;17.70;46.00;;;;;;5017179;28;20025;-76
2022/03/13 10:29:47;;;;;;;13.45;8.52;;;18.20;46.20;;;;;;5035215;28;20033;-76
2022/03/13 10:32:13;;;;;;;14.30;8.75;;;18.60;45.50;;;;;;5053429;28;20018;-76
2022/03/13 10:34:39;;;;;;;13.25;9.15;;;18.90;44.50;;;;;;5053344;28;20453;-76
2022/03/13 10:37:05;;;;;;;14.50;10.48;;;19.10;44.50;;;;;;5053026;28;20061;-76
2022/03/13 10:39:34;;;;;;;14.32;9.07;;;19.30;43.00;;;;;;5054552;28;20036;-76
2022/03/13 10:42:02;;;;;;;13.98;9.25;;;19.30;42.90;;;;;;5053416;28;20377;-76
2022/03/13 10:44:31;;;;;;;15.63;9.88;;;19.40;42.50;;;;;;5053262;28;20020;-77
2022/03/13 10:47:03;;;;;;;12.40;8.85;;;19.60;41.90;;;;;;5054473;28;20354;-76
2022/03/13 10:49:36;;;;;;;16.05;10.02;;;19.90;41.60;;;;;;5053052;28;20036;-76
2022/03/13 10:52:23;;;;;;;12.00;9.80;;;20.10;41.30;;;;;;5054163;28;20107;-76
2022/03/13 10:54:50;;;;;;;13.68;9.23;;;20.20;40.80;;;;;;5049415;28;20480;-77
2022/03/13 10:57:15;;;;;;;12.98;9.93;;;20.30;40.40;;;;;;5036029;28;20033;-76
2022/03/13 10:59:42;;;;;;;13.68;10.15;;;20.50;40.30;;;;;;5054106;28;20100;-76
2022/03/13 11:02:21;;;;;;;14.98;9.82;;;20.60;40.10;;;;;;5054155;28;20369;-76
2022/03/13 11:04:58;;;;;;;14.48;9.82;;;20.80;39.90;;;;;;5038026;28;20134;-76
2022/03/13 11:07:26;;;;;;;13.23;9.20;;;21.00;39.30;;;;;;5052573;28;20025;-76
2022/03/13 11:09:56;;;;;;;12.93;9.57;;;21.20;39.50;;;;;;5054156;28;20037;-76
2022/03/13 11:12:23;;;;;;;14.55;9.82;;;21.70;39.50;;;;;;5052757;28;20373;-76
2022/03/13 11:14:55;;;;;;;14.50;8.30;;;22.30;39.60;;;;;;5052585;28;20021;-76
2022/03/13 11:17:23;;;;;;;11.25;8.45;;;22.90;39.50;;;;;;5054064;28;20029;-77
2022/03/13 11:19:51;;;;;;;11.68;8.35;;;23.50;39.20;;;;;;5054000;28;20051;-75
2022/03/13 11:22:20;;;;;;;13.52;8.55;;;24.10;38.60;;;;;;5052587;28;20028;-77
2022/03/13 11:24:50;;;;;;;10.43;7.45;;;24.60;38.30;;;;;;5032735;28;20390;-77
2022/03/13 11:27:17;;;;;;;10.70;7.82;;;25.20;37.90;;;;;;5036267;28;20033;-77
2022/03/13 11:29:48;;;;;;;8.95;6.65;;;25.70;37.20;;;;;;5043122;28;20082;-77
2022/03/13 11:32:33;;;;;;;8.68;6.07;;;26.20;36.50;;;;;;5029886;28;20024;-77
2022/03/13 11:35:11;;;;;;;8.32;5.95;;;26.60;35.40;;;;;;5033709;28;20022;-78
2022/03/13 11:37:37;;;;;;;8.90;6.78;;;27.00;35.30;;;;;;5039565;28;20060;-77
2022/03/13 11:40:05;;;;;;;8.63;6.57;;;27.20;34.30;;;;;;5048268;28;20029;-77
2022/03/13 11:42:50;;;;;;;9.55;7.10;;;27.30;33.90;;;;;;5032484;28;20420;-76
2022/03/13 11:45:32;;;;;;;9.55;6.40;;;27.50;33.20;;;;;;5033658;28;20034;-78
2022/03/13 11:48:22;;;;;;;9.45;6.82;;;27.70;33.40;;;;;;5032043;28;20025;-75
2022/03/13 11:50:52;;;;;;;10.02;6.60;;;27.80;33.00;;;;;;5032240;28;20033;-77
2022/03/13 11:53:21;;;;;;;9.45;7.25;;;28.10;32.90;;;;;;5033521;28;20049;-77
2022/03/13 11:56:02;;;;;;;9.48;6.70;;;28.20;32.30;;;;;;5031658;28;20056;-78
2022/03/13 11:58:41;;;;;;;7.63;5.78;;;28.30;31.50;;;;;;5033916;28;20025;-78
2022/03/13 12:01:09;;;;;;;10.05;6.10;;;28.20;31.80;;;;;;5032414;28;20037;-77
2022/03/13 12:03:35;;;;;;;7.97;6.10;;;28.20;31.50;;;;;;5032597;28;20357;-78
2022/03/13 12:06:00;;;;;;;7.93;5.72;;;28.20;31.60;;;;;;5015803;28;20023;-78
2022/03/13 12:09:07;;;;;;;7.28;5.18;;;28.30;31.70;;;;;;5015442;28;20058;-76
2022/03/13 12:11:47;;;;;;;9.70;5.00;;;28.40;31.30;;;;;;5035848;28;20017;-76
2022/03/13 12:14:15;;;;;;;9.18;5.05;;;28.30;31.50;;;;;;5048274;28;20381;-76
2022/03/13 12:16:44;;;;;;;9.07;6.07;;;28.20;31.50;;;;;;5052773;28;20021;-74
2022/03/13 12:19:11;;;;;;;9.18;5.85;;;28.10;31.60;;;;;;5052929;28;20036;-74
2022/03/13 12:21:41;;;;;;;9.35;5.47;;;27.90;31.50;;;;;;5053140;28;20110;-74
2022/03/13 12:24:13;;;;;;;9.30;5.95;;;27.80;31.50;;;;;;5052126;28;20059;-76
2022/03/13 12:26:40;;;;;;;8.15;5.53;;;27.80;31.50;;;;;;5053042;28;20575;-76
2022/03/13 12:29:09;;;;;;;7.53;5.43;;;27.60;31.60;;;;;;5051442;28;20032;-74
2022/03/13 12:31:46;;;;;;;7.47;5.53;;;27.40;32.30;;;;;;5035571;28;20029;-74
2022/03/13 12:34:13;;;;;;;6.90;4.85;;;27.40;31.90;;;;;;5053086;28;20079;-76
2022/03/13 12:36:41;;;;;;;7.82;5.43;;;27.30;31.90;;;;;;5051239;28;20125;-74
2022/03/13 12:39:11;;;;;;;7.95;5.55;;;27.30;31.90;;;;;;5053096;28;20017;-75